Time;durP1;ratioP1;P1;durP2;ratioP2;P2;SDS_P1;SDS_P2;PMS_P1;PMS_P2;Temp;Humidity;BMP_temperature;BMP_pressure;BME280_temperature;BME280_humidity;BME280_pressure;Samples;Min_cycle;Max_cycle;Signal;HPM_P1;HPM_P2
2023/12/01 00:02:00;;;;;;;;;;;0.20;99.90;;;;;;5146330;27;19974;-78
2023/12/01 00:04:25;;;;;;;;;;;0.20;99.90;;;;;;5133281;27;19919;-78
2023/12/01 00:06:51;;;;;;;;;;;0.20;99.90;;;;;;5125725;27;20508;-78
2023/12/01 00:09:23;;;;;;;;;;;0.20;99.90;;;;;;5119685;27;20289;-78
2023/12/01 00:11:49;;;;;;;;;;;0.20;99.90;;;;;;5118059;27;20010;-78
2023/12/01 00:14:14;;;;;;;;;;;0.20;99.90;;;;;;5122925;27;20001;-78
2023/12/01 00:16:40;;;;;;;;;;;0.20;99.90;;;;;;5125899;27;19935;-78
2023/12/01 00:19:08;;;;;;;;;;;0.20;99.90;;;;;;5139345;27;19934;-79
2023/12/01 00:21:34;;;;;;;;;;;0.20;99.90;;;;;;5124318;27;19954;-78
2023/12/01 00:23:59;;;;;;;;;;;0.10;99.90;;;;;;5124967;27;20280;-77
2023/12/01 00:26:25;;;;;;;;;;;0.10;99.90;;;;;;5136276;27;21550;-77
2023/12/01 00:28:50;;;;;;;;;;;1.30;99.90;;;;;;5130226;27;19945;-78
2023/12/01 00:31:16;;;;;;;;;;;0.10;99.90;;;;;;5131850;27;19926;-78
2023/12/01 00:33:41;;;;;;;;;;;0.10;99.90;;;;;;5125702;27;19920;-77
2023/12/01 00:36:07;;;;;;;;;;;0.10;99.90;;;;;;5116080;27;19971;-76
2023/12/01 00:38:34;;;;;;;;;;;0.00;99.90;;;;;;5149831;27;20057;-77
2023/12/01 00:41:00;;;;;;;;;;;0.00;99.90;;;;;;5129135;27;20373;-77
2023/12/01 00:43:26;;;;;;;;;;;0.00;99.90;;;;;;5128526;27;19927;-77
2023/12/01 00:45:51;;;;;;;;;;;0.00;99.90;;;;;;5128523;27;19966;-78
2023/12/01 00:48:17;;;;;;;;;;;0.30;99.90;;;;;;5133133;27;20000;-76
2023/12/01 00:50:43;;;;;;;;;;;0.00;99.90;;;;;;5118488;27;20277;-77
2023/12/01 00:53:09;;;;;;;;;;;0.00;99.90;;;;;;5135389;27;19919;-78
2023/12/01 00:55:34;;;;;;;;;;;-0.10;99.90;;;;;;5115516;27;20535;-80
2023/12/01 00:58:00;;;;;;;;;;;-0.10;99.90;;;;;;5122608;27;20412;-77
2023/12/01 01:00:26;;;;;;;;;;;-0.10;99.90;;;;;;5125992;27;19931;-79
2023/12/01 01:02:51;;;;;;;;;;;-0.20;99.90;;;;;;5120556;27;19919;-78
2023/12/01 01:05:17;;;;;;;;;;;-0.20;99.90;;;;;;5120436;27;19941;-77
2023/12/01 01:07:43;;;;;;;;;;;0.80;99.90;;;;;;5122814;27;19920;-76
2023/12/01 01:10:08;;;;;;;;;;;0.60;99.90;;;;;;5118206;27;20289;-76
2023/12/01 01:12:34;;;;;;;;;;;-0.20;99.90;;;;;;5128879;27;19931;-77
2023/12/01 01:15:03;;;;;;;;;;;-0.20;99.90;;;;;;5127738;27;19919;-76
2023/12/01 01:17:32;;;;;;;;;;;-0.20;99.90;;;;;;5141996;27;19923;-76
2023/12/01 01:19:58;;;;;;;;;;;-0.30;99.90;;;;;;5122061;27;20740;-76
2023/12/01 01:22:25;;;;;;;;;;;-0.30;99.90;;;;;;5136177;27;19919;-76
2023/12/01 01:24:50;;;;;;;;;;;-0.30;99.90;;;;;;5140895;27;19923;-77
2023/12/01 01:27:16;;;;;;;;;;;0.20;99.90;;;;;;5125704;27;20293;-77
2023/12/01 01:29:45;;;;;;;;;;;-0.30;99.90;;;;;;5118994;27;19957;-77
2023/12/01 01:32:11;;;;;;;;;;;0.10;99.90;;;;;;5125998;28;19923;-78
2023/12/01 01:34:37;;;;;;;;;;;-0.30;99.90;;;;;;5123654;27;20022;-78
2023/12/01 01:37:03;;;;;;;;;;;-0.30;99.90;;;;;;5112136;28;19920;-78
2023/12/01 01:39:28;;;;;;;;;;;-0.40;99.90;;;;;;5116899;28;20002;-78
2023/12/01 01:41:57;;;;;;;;;;;-0.30;99.90;;;;;;5121578;27;19923;-78
2023/12/01 01:44:23;;;;;;;;;;;-0.40;99.90;;;;;;5135130;27;20362;-78
2023/12/01 01:46:50;;;;;;;;;;;-0.30;99.90;;;;;;5121953;27;19925;-79
2023/12/01 01:49:16;;;;;;;;;;;-0.40;99.90;;;;;;5127838;27;20022;-78
2023/12/01 01:51:42;;;;;;;;;;;-0.40;99.90;;;;;;5120329;27;19927;-78
2023/12/01 01:54:07;;;;;;;;;;;-0.40;99.90;;;;;;5121588;27;19945;-78
2023/12/01 01:56:33;;;;;;;;;;;-0.40;99.90;;;;;;5120228;28;19921;-79
2023/12/01 01:59:00;;;;;;;;;;;-0.40;99.90;;;;;;5124828;27;19945;-79
2023/12/01 02:01:31;;;;;;;;;;;-0.40;99.90;;;;;;5128945;27;19926;-78
2023/12/01 02:03:57;;;;;;;;;;;-0.40;99.90;;;;;;5128919;27;19919;-79
2023/12/01 02:06:30;;;;;;;;;;;-0.50;99.90;;;;;;5121269;28;19926;-78
2023/12/01 02:08:57;;;;;;;;;;;-0.50;99.90;;;;;;5143839;27;19919;-79
2023/12/01 02:11:23;;;;;;;;;;;-0.50;99.90;;;;;;5129599;27;19923;-79
2023/12/01 02:13:48;;;;;;;;;;;-0.50;99.90;;;;;;5122850;27;20009;-76
2023/12/01 02:16:14;;;;;;;;;;;0.10;99.90;;;;;;5119349;27;19933;-77
2023/12/01 02:18:39;;;;;;;;;;;-0.50;99.90;;;;;;5130196;27;20007;-77
2023/12/01 02:21:08;;;;;;;;;;;-0.50;99.90;;;;;;5132480;27;19981;-77
2023/12/01 02:23:34;;;;;;;;;;;-0.50;99.90;;;;;;5129846;27;19919;-77
2023/12/01 02:25:59;;;;;;;;;;;-0.50;99.90;;;;;;5131385;27;19953;-76
2023/12/01 02:28:25;;;;;;;;;;;-0.60;99.90;;;;;;5133144;27;19922;-78
2023/12/01 02:30:54;;;;;;;;;;;-0.60;99.90;;;;;;5126568;27;19923;-78
2023/12/01 02:33:20;;;;;;;;;;;-0.60;99.90;;;;;;5124195;27;19926;-79
2023/12/01 02:35:53;;;;;;;;;;;-0.60;99.90;;;;;;5133097;27;19919;-79
2023/12/01 02:38:19;;;;;;;;;;;-0.60;99.90;;;;;;5130098;27;20414;-79
2023/12/01 02:40:49;;;;;;;;;;;-0.60;99.90;;;;;;5131296;27;19919;-79
2023/12/01 02:43:18;;;;;;;;;;;-0.60;99.90;;;;;;5126345;27;19946;-78
2023/12/01 02:45:44;;;;;;;;;;;-0.60;99.90;;;;;;5128593;27;20010;-79
2023/12/01 02:48:10;;;;;;;;;;;-0.60;99.90;;;;;;5126911;27;20014;-76
2023/12/01 02:50:36;;;;;;;;;;;-0.70;99.90;;;;;;5133001;27;20327;-77
2023/12/01 02:53:02;;;;;;;;;;;-0.70;99.90;;;;;;5130742;27;19929;-77
2023/12/01 02:55:27;;;;;;;;;;;-0.70;99.90;;;;;;5122409;27;20006;-77
2023/12/01 02:57:53;;;;;;;;;;;-0.70;99.90;;;;;;5140861;27;20002;-78
2023/12/01 03:00:19;;;;;;;;;;;-0.70;99.90;;;;;;5129301;27;19971;-78
2023/12/01 03:02:45;;;;;;;;;;;-0.70;99.90;;;;;;5130958;27;19920;-78
2023/12/01 03:05:10;;;;;;;;;;;-0.80;99.90;;;;;;5122557;27;19930;-78
2023/12/01 03:07:36;;;;;;;;;;;-0.80;99.90;;;;;;5135127;27;19928;-78
2023/12/01 03:10:12;;;;;;;;;;;-0.90;99.90;;;;;;5125962;27;20552;-78
2023/12/01 03:12:38;;;;;;;;;;;0.10;99.90;;;;;;5115093;27;20006;-76
2023/12/01 03:15:04;;;;;;;;;;;-0.90;99.90;;;;;;5127535;27;19926;-76
2023/12/01 03:17:30;;;;;;;;;;;-1.00;99.90;;;;;;5122681;27;19925;-76
2023/12/01 03:19:57;;;;;;;;;;;-0.80;99.90;;;;;;5128158;27;20017;-76
2023/12/01 03:22:23;;;;;;;;;;;-1.10;99.90;;;;;;5130262;27;19918;-75
2023/12/01 03:24:50;;;;;;;;;;;-1.00;99.90;;;;;;5116369;27;19920;-75
2023/12/01 03:27:21;;;;;;;;;;;-1.10;99.90;;;;;;5119436;27;19978;-75
2023/12/01 03:29:47;;;;;;;;;;;-1.30;99.90;;;;;;5119716;27;19919;-75
2023/12/01 03:32:12;;;;;;;;;;;-1.30;99.90;;;;;;5126595;27;19919;-75
2023/12/01 03:34:38;;;;;;;;;;;-1.20;99.90;;;;;;5119000;27;20002;-75
2023/12/01 03:37:03;;;;;;;;;;;-1.40;99.90;;;;;;5119688;27;19919;-75
2023/12/01 03:39:30;;;;;;;;;;;-1.40;99.90;;;;;;5129615;27;19927;-77
2023/12/01 03:41:56;;;;;;;;;;;-1.50;99.90;;;;;;5121837;27;19923;-76
2023/12/01 03:44:21;;;;;;;;;;;-1.50;99.90;;;;;;5129963;27;20191;-77
2023/12/01 03:46:47;;;;;;;;;;;-1.60;99.90;;;;;;5131353;27;20259;-76
2023/12/01 03:49:12;;;;;;;;;;;-1.60;99.90;;;;;;5131350;27;19918;-76
2023/12/01 03:51:38;;;;;;;;;;;-1.60;99.90;;;;;;5132008;27;19926;-76
2023/12/01 03:54:03;;;;;;;;;;;-1.70;99.90;;;;;;5126690;27;19923;-76
2023/12/01 03:56:29;;;;;;;;;;;-1.70;99.90;;;;;;5114952;27;19930;-76
2023/12/01 03:58:55;;;;;;;;;;;-1.80;99.90;;;;;;5123856;27;19919;-76
2023/12/01 04:01:21;;;;;;;;;;;-1.80;99.90;;;;;;5129233;27;19923;-75
2023/12/01 04:03:49;;;;;;;;;;;-1.40;99.90;;;;;;5118078;27;20426;-76
2023/12/01 04:06:15;;;;;;;;;;;-1.90;99.90;;;;;;5132994;27;20051;-76
2023/12/01 04:08:41;;;;;;;;;;;-1.90;99.90;;;;;;5128129;27;20409;-75
2023/12/01 04:11:06;;;;;;;;;;;-2.00;99.90;;;;;;5124321;27;19919;-75
2023/12/01 04:13:32;;;;;;;;;;;-2.00;99.90;;;;;;5139616;27;19988;-76
2023/12/01 04:15:58;;;;;;;;;;;-2.00;99.90;;;;;;5123361;27;20800;-76
2023/12/01 04:18:23;;;;;;;;;;;-2.10;99.90;;;;;;5138470;27;20278;-75
2023/12/01 04:20:49;;;;;;;;;;;-2.10;99.90;;;;;;5130690;27;19925;-76
2023/12/01 04:23:15;;;;;;;;;;;-2.10;99.90;;;;;;5128531;27;20352;-77
2023/12/01 04:25:44;;;;;;;;;;;-2.20;99.90;;;;;;5123441;27;19968;-77
2023/12/01 04:28:10;;;;;;;;;;;-2.20;99.90;;;;;;5123754;27;19927;-76
2023/12/01 04:30:36;;;;;;;;;;;-2.30;99.90;;;;;;5125465;27;19923;-77
2023/12/01 04:33:01;;;;;;;;;;;-2.30;99.90;;;;;;5132300;27;19919;-76
2023/12/01 04:35:28;;;;;;;;;;;-2.30;99.90;;;;;;5128696;27;19964;-76
2023/12/01 04:37:54;;;;;;;;;;;-2.30;99.90;;;;;;5144740;27;19919;-76
2023/12/01 04:40:20;;;;;;;;;;;-2.30;99.90;;;;;;5124173;27;19928;-76
2023/12/01 04:42:47;;;;;;;;;;;-2.40;99.90;;;;;;5119944;27;20352;-76
2023/12/01 04:45:13;;;;;;;;;;;-2.40;99.90;;;;;;5122254;27;19914;-77
2023/12/01 04:47:42;;;;;;;;;;;-1.60;99.90;;;;;;5123828;27;20033;-76
2023/12/01 04:50:12;;;;;;;;;;;-2.50;99.90;;;;;;5126426;27;20324;-76
2023/12/01 04:52:42;;;;;;;;;;;-2.50;99.90;;;;;;5120609;27;19923;-76
2023/12/01 04:55:12;;;;;;;;;;;-2.50;99.90;;;;;;5130856;27;19930;-76
2023/12/01 04:57:38;;;;;;;;;;;-2.60;99.90;;;;;;5124111;27;20006;-77
2023/12/01 05:00:19;;;;;;;;;;;-2.60;99.90;;;;;;5143516;27;19946;-76
2023/12/01 05:03:05;;;;;;;;;;;-1.30;99.90;;;;;;5131322;27;20017;-75
2023/12/01 05:05:35;;;;;;;;;;;-2.70;99.90;;;;;;5124068;27;19929;-76
2023/12/01 05:08:04;;;;;;;;;;;-2.70;99.90;;;;;;5131755;27;20331;-76
2023/12/01 05:10:31;;;;;;;;;;;-2.70;99.90;;;;;;5127840;27;19977;-76
2023/12/01 05:12:57;;;;;;;;;;;-2.70;99.90;;;;;;5130266;27;19918;-76
2023/12/01 05:15:24;;;;;;;;;;;-2.80;99.90;;;;;;5124601;27;19929;-75
2023/12/01 05:17:51;;;;;;;;;;;-2.80;99.90;;;;;;5128592;27;19919;-76
2023/12/01 05:20:20;;;;;;;;;;;-2.80;99.90;;;;;;5126283;27;19927;-75
2023/12/01 05:22:46;;;;;;;;;;;-2.80;99.90;;;;;;5118863;27;19920;-76
2023/12/01 05:25:15;;;;;;;;;;;-2.80;99.90;;;;;;5125568;27;19926;-74
2023/12/01 05:27:45;;;;;;;;;;;-2.80;99.90;;;;;;5118982;27;19923;-76
2023/12/01 05:30:12;;;;;;;;;;;-2.90;99.90;;;;;;5117624;27;20412;-77
2023/12/01 05:32:41;;;;;;;;;;;-2.90;99.90;;;;;;5112802;27;19919;-75
2023/12/01 05:35:10;;;;;;;;;;;-2.90;99.90;;;;;;5114316;28;20410;-75
2023/12/01 05:37:46;;;;;;;;;;;-3.00;99.90;;;;;;5117309;27;20413;-76
2023/12/01 05:40:14;;;;;;;;;;;-3.00;99.90;;;;;;5119159;27;19930;-75
2023/12/01 05:42:41;;;;;;;;;;;-3.00;99.90;;;;;;5118566;28;19965;-76
2023/12/01 05:45:11;;;;;;;;;;;-3.00;99.90;;;;;;5114183;28;19920;-76
2023/12/01 05:47:46;;;;;;;;;;;-3.10;99.90;;;;;;5118121;28;19919;-76
2023/12/01 05:50:12;;;;;;;;;;;-3.10;99.90;;;;;;5119377;28;19923;-76
2023/12/01 05:52:39;;;;;;;;;;;-3.10;99.90;;;;;;5114996;27;19942;-76
2023/12/01 05:55:10;;;;;;;;;;;-3.10;99.90;;;;;;5120522;27;20508;-76
2023/12/01 05:57:36;;;;;;;;;;;-3.10;99.90;;;;;;5121978;27;19979;-76
2023/12/01 06:00:02;;;;;;;;;;;-3.10;99.90;;;;;;5119736;27;19923;-75
2023/12/01 06:02:28;;;;;;;;;;;-3.10;99.90;;;;;;5121516;27;19919;-76
2023/12/01 06:04:57;;;;;;;;;;;-3.20;99.90;;;;;;5117978;27;19947;-76
2023/12/01 06:07:23;;;;;;;;;;;-3.20;99.90;;;;;;5121452;27;20327;-76
2023/12/01 06:09:49;;;;;;;;;;;-4.30;99.90;;;;;;5121577;27;19926;-75
2023/12/01 06:12:14;;;;;;;;;;;-3.20;99.90;;;;;;5131392;27;19919;-75
2023/12/01 06:14:40;;;;;;;;;;;-1.90;99.90;;;;;;5131770;27;19972;-75
2023/12/01 06:17:07;;;;;;;;;;;-3.20;99.90;;;;;;5131355;27;19951;-75
2023/12/01 06:19:35;;;;;;;;;;;-3.20;99.90;;;;;;5118298;27;19931;-76
2023/12/01 06:22:00;;;;;;;;;;;-3.20;99.90;;;;;;5123948;27;19964;-76
2023/12/01 06:24:26;;;;;;;;;;;-3.20;99.90;;;;;;5135554;27;20365;-75
2023/12/01 06:26:52;;;;;;;;;;;-3.20;99.90;;;;;;5129169;27;19980;-76
2023/12/01 06:29:18;;;;;;;;;;;-3.20;99.90;;;;;;5143088;27;19915;-76
2023/12/01 06:31:44;;;;;;;;;;;-3.30;99.90;;;;;;5128521;27;20267;-76
2023/12/01 06:34:10;;;;;;;;;;;-3.30;99.90;;;;;;5122197;27;20010;-75
2023/12/01 06:36:35;;;;;;;;;;;-3.30;99.90;;;;;;5125154;27;19927;-76
2023/12/01 06:39:01;;;;;;;;;;;-3.30;99.90;;;;;;5130236;27;20286;-76
2023/12/01 06:41:26;;;;;;;;;;;-3.30;99.90;;;;;;5123526;27;19919;-76
2023/12/01 06:43:56;;;;;;;;;;;-3.30;99.90;;;;;;5130041;27;19919;-75
2023/12/01 06:46:22;;;;;;;;;;;-3.30;99.90;;;;;;5120459;27;19927;-75
2023/12/01 06:48:47;;;;;;;;;;;-3.30;99.90;;;;;;5126880;27;19927;-75
2023/12/01 06:51:14;;;;;;;;;;;-1.80;99.90;;;;;;5139350;27;19930;-75
2023/12/01 06:53:39;;;;;;;;;;;-3.40;99.90;;;;;;5134086;27;19965;-75
2023/12/01 06:56:05;;;;;;;;;;;-3.40;99.90;;;;;;5116848;27;19959;-74
2023/12/01 06:58:32;;;;;;;;;;;-3.40;99.90;;;;;;5128116;27;19931;-75
2023/12/01 07:00:57;;;;;;;;;;;-3.40;99.90;;;;;;5129939;27;19919;-75
2023/12/01 07:03:23;;;;;;;;;;;-3.50;99.90;;;;;;5119209;27;19926;-76
2023/12/01 07:05:52;;;;;;;;;;;-3.50;99.90;;;;;;5136247;27;20006;-75
2023/12/01 07:08:17;;;;;;;;;;;-3.50;99.90;;;;;;5125719;27;20761;-75
2023/12/01 07:10:43;;;;;;;;;;;-3.50;99.90;;;;;;5125115;27;19925;-75
2023/12/01 07:13:12;;;;;;;;;;;-3.50;99.90;;;;;;5117932;27;19920;-74
2023/12/01 07:15:37;;;;;;;;;;;-3.50;99.90;;;;;;5115621;27;19929;-76
2023/12/01 07:18:04;;;;;;;;;;;-3.60;99.90;;;;;;5124377;27;19927;-75
2023/12/01 07:20:33;;;;;;;;;;;-3.50;99.90;;;;;;5119785;27;19926;-73
2023/12/01 07:22:59;;;;;;;;;;;-3.60;99.90;;;;;;5119006;27;20019;-76
2023/12/01 07:25:25;;;;;;;;;;;-3.60;99.90;;;;;;5129167;27;20070;-76
2023/12/01 07:27:54;;;;;;;;;;;-3.60;99.90;;;;;;5128832;27;20426;-76
2023/12/01 07:30:20;;;;;;;;;;;-3.60;99.90;;;;;;5129034;27;19926;-76
2023/12/01 07:32:46;;;;;;;;;;;-3.60;99.90;;;;;;5130383;27;20141;-76
2023/12/01 07:35:12;;;;;;;;;;;-3.60;99.90;;;;;;5128987;27;19919;-76
2023/12/01 07:37:38;;;;;;;;;;;-3.60;99.90;;;;;;5118981;27;19920;-76
2023/12/01 07:40:06;;;;;;;;;;;-3.60;99.90;;;;;;5126057;27;19937;-76
2023/12/01 07:42:32;;;;;;;;;;;-3.60;99.90;;;;;;5129923;27;19920;-76
2023/12/01 07:44:58;;;;;;;;;;;-3.60;99.90;;;;;;5111562;27;19966;-76
2023/12/01 07:47:24;;;;;;;;;;;-3.60;99.90;;;;;;5129855;27;19969;-75
2023/12/01 07:49:49;;;;;;;;;;;-3.60;99.90;;;;;;5112223;27;19920;-74
2023/12/01 07:52:15;;;;;;;;;;;-3.60;99.90;;;;;;5129916;27;20281;-74
2023/12/01 07:54:40;;;;;;;;;;;-3.60;99.90;;;;;;5124319;27;20339;-74
2023/12/01 07:57:06;;;;;;;;;;;-3.60;99.90;;;;;;5127949;27;20378;-73
2023/12/01 07:59:32;;;;;;;;;;;-2.20;99.90;;;;;;5119911;27;20290;-74
2023/12/01 08:01:58;;;;;;;;;;;-3.60;99.90;;;;;;5119299;27;19947;-74
2023/12/01 08:04:24;;;;;;;;;;;-3.60;99.90;;;;;;5123674;27;19930;-74
2023/12/01 08:06:59;;;;;;;;;;;-3.60;99.90;;;;;;5127522;27;19930;-74
2023/12/01 08:09:25;;;;;;;;;;;-3.50;99.90;;;;;;5128124;27;19927;-73
2023/12/01 08:11:50;;;;;;;;;;;-3.50;99.90;;;;;;5114814;27;20016;-75
2023/12/01 08:14:16;;;;;;;;;;;-3.40;99.90;;;;;;5124277;27;19978;-74
2023/12/01 08:16:44;;;;;;;;;;;-3.40;99.90;;;;;;5122579;27;19942;-75
2023/12/01 08:19:13;;;;;;;;;;;-3.40;99.90;;;;;;5121081;27;20275;-74
2023/12/01 08:21:39;;;;;;;;;;;-3.10;99.90;;;;;;5124662;27;19923;-74
2023/12/01 08:24:05;;;;;;;;;;;-3.40;99.90;;;;;;5124926;27;20401;-73
2023/12/01 08:26:31;;;;;;;;;;;-3.30;99.90;;;;;;5114609;27;20335;-73
2023/12/01 08:28:57;;;;;;;;;;;-3.30;99.90;;;;;;5125525;27;19927;-73
2023/12/01 08:31:23;;;;;;;;;;;-3.20;99.90;;;;;;5128344;27;20525;-74
2023/12/01 08:33:49;;;;;;;;;;;-3.20;99.90;;;;;;5127664;27;19926;-74
2023/12/01 08:36:14;;;;;;;;;;;-3.20;99.90;;;;;;5125118;27;19920;-74
2023/12/01 08:38:43;;;;;;;;;;;-3.10;99.90;;;;;;5125526;27;19927;-74
2023/12/01 08:41:08;;;;;;;;;;;-3.10;99.90;;;;;;5121181;27;19919;-74
2023/12/01 08:43:34;;;;;;;;;;;-3.10;99.90;;;;;;5120687;27;19927;-74
2023/12/01 08:45:59;;;;;;;;;;;-3.00;99.90;;;;;;5125549;27;19919;-74
2023/12/01 08:48:25;;;;;;;;;;;-3.00;99.90;;;;;;5121256;27;19972;-73
2023/12/01 08:50:50;;;;;;;;;;;-2.90;99.90;;;;;;5122803;27;19923;-73
2023/12/01 08:53:16;;;;;;;;;;;-2.90;99.90;;;;;;5128870;27;20010;-73
2023/12/01 08:55:42;;;;;;;;;;;-2.60;99.90;;;;;;5118223;27;19923;-73
2023/12/01 08:58:09;;;;;;;;;;;-2.80;99.90;;;;;;5125890;27;19971;-73
2023/12/01 09:00:35;;;;;;;;;;;-2.80;99.90;;;;;;5126529;27;20006;-74
2023/12/01 09:03:00;;;;;;;;;;;-2.80;99.90;;;;;;5127227;27;20394;-74
2023/12/01 09:05:26;;;;;;;;;;;-2.70;99.90;;;;;;5122639;27;20365;-77
2023/12/01 09:07:54;;;;;;;;;;;-2.70;99.90;;;;;;5125554;27;19919;-74
2023/12/01 09:10:22;;;;;;;;;;;-2.60;99.90;;;;;;5120367;27;19930;-79
2023/12/01 09:12:50;;;;;;;;;;;-2.60;99.90;;;;;;5119179;27;19970;-75
2023/12/01 09:15:16;;;;;;;;;;;-2.50;99.90;;;;;;5118215;27;20290;-76
2023/12/01 09:17:42;;;;;;;;;;;-2.50;99.90;;;;;;5126078;27;19919;-75
2023/12/01 09:20:11;;;;;;;;;;;-2.50;99.90;;;;;;5140583;27;19919;-75
2023/12/01 09:22:37;;;;;;;;;;;-2.40;99.90;;;;;;5129357;27;20520;-76
2023/12/01 09:25:03;;;;;;;;;;;-2.40;99.90;;;;;;5125993;27;20023;-76
2023/12/01 09:27:29;;;;;;;;;;;-2.30;99.90;;;;;;5129135;27;19919;-76
2023/12/01 09:29:55;;;;;;;;;;;-2.30;99.90;;;;;;5138815;27;20227;-76
2023/12/01 09:32:21;;;;;;;;;;;-2.20;99.90;;;;;;5121770;27;19925;-76
2023/12/01 09:34:47;;;;;;;;;;;-2.20;99.90;;;;;;5123231;27;19919;-76
2023/12/01 09:37:12;;;;;;;;;;;-2.10;99.90;;;;;;5125295;27;19969;-76
2023/12/01 09:39:38;;;;;;;;;;;-2.00;99.90;;;;;;5134634;27;20014;-77
2023/12/01 09:42:08;;;;;;;;;;;-2.00;99.90;;;;;;5124375;27;20254;-75
2023/12/01 09:44:33;;;;;;;;;;;-1.90;99.90;;;;;;5119739;27;19920;-77
2023/12/01 09:47:00;;;;;;;;;;;-0.60;99.90;;;;;;5122620;27;19934;-74
2023/12/01 09:49:30;;;;;;;;;;;-1.80;99.90;;;;;;5117414;27;19919;-78
2023/12/01 09:51:56;;;;;;;;;;;-1.70;99.90;;;;;;5121168;27;19937;-75
2023/12/01 09:54:22;;;;;;;;;;;-1.60;99.90;;;;;;5122143;27;19919;-75
2023/12/01 09:56:47;;;;;;;;;;;-1.60;99.90;;;;;;5138984;27;19930;-74
2023/12/01 09:59:16;;;;;;;;;;;-1.50;99.90;;;;;;5124529;27;19923;-72
2023/12/01 10:01:41;;;;;;;;;;;-1.40;99.90;;;;;;5120925;27;19926;-73
2023/12/01 10:04:08;;;;;;;;;;;-1.40;99.90;;;;;;5126644;27;19923;-74
2023/12/01 10:06:37;;;;;;;;;;;-1.20;99.90;;;;;;5120526;27;20270;-75
2023/12/01 10:09:03;;;;;;;;;;;-0.90;99.90;;;;;;5120455;28;19965;-75
2023/12/01 10:11:28;;;;;;;;;;;-1.10;99.90;;;;;;5128749;27;19954;-74
2023/12/01 10:13:54;;;;;;;;;;;-1.00;99.90;;;;;;5131720;27;19967;-74
2023/12/01 10:16:21;;;;;;;;;;;-0.30;99.90;;;;;;5117536;27;19933;-75
2023/12/01 10:18:57;;;;;;;;;;;0.30;99.90;;;;;;5137133;27;20331;-75
2023/12/01 10:21:39;;;;;;;;;;;-0.80;99.90;;;;;;5133140;27;19919;-75
2023/12/01 10:24:21;;;;;;;;;;;-0.70;99.90;;;;;;5120402;27;19920;-74
2023/12/01 10:26:47;;;;;;;;;;;-0.50;99.90;;;;;;5113019;27;19919;-74
2023/12/01 10:29:23;;;;;;;;;;;0.30;99.90;;;;;;5127651;27;20278;-75
2023/12/01 10:31:48;;;;;;;;;;;0.00;99.90;;;;;;5127984;27;20023;-75
2023/12/01 10:34:14;;;;;;;;;;;0.50;99.90;;;;;;5119954;27;20006;-75
2023/12/01 10:36:40;;;;;;;;;;;1.10;99.90;;;;;;5149718;27;19919;-75
2023/12/01 10:39:07;;;;;;;;;;;1.80;99.90;;;;;;5130719;27;20046;-75
2023/12/01 10:41:33;;;;;;;;;;;2.70;99.90;;;;;;5133266;27;20362;-75
2023/12/01 10:43:59;;;;;;;;;;;4.10;99.90;;;;;;5119182;27;19937;-75
2023/12/01 10:46:24;;;;;;;;;;;5.10;99.90;;;;;;5114263;27;20344;-76
2023/12/01 10:48:51;;;;;;;;;;;6.40;99.90;;;;;;5122876;27;20262;-75
2023/12/01 10:51:17;;;;;;;;;;;7.40;99.90;;;;;;5128980;27;19927;-75
2023/12/01 10:53:43;;;;;;;;;;;8.30;99.90;;;;;;5149597;27;19925;-76
2023/12/01 10:56:13;;;;;;;;;;;8.90;99.90;;;;;;5129877;27;19926;-75
2023/12/01 10:58:39;;;;;;;;;;;9.30;99.90;;;;;;5133815;27;19925;-76
2023/12/01 11:01:04;;;;;;;;;;;9.30;99.90;;;;;;5133652;27;20297;-75
2023/12/01 11:03:31;;;;;;;;;;;8.90;99.90;;;;;;5135552;27;19930;-76
2023/12/01 11:06:01;;;;;;;;;;;8.60;99.90;;;;;;5132506;27;19966;-76
2023/12/01 11:08:42;;;;;;;;;;;7.60;99.90;;;;;;5153522;27;19918;-75
2023/12/01 11:11:27;;;;;;;;;;;6.80;99.90;;;;;;5121119;27;19923;-75
2023/12/01 11:14:05;;;;;;;;;;;6.00;99.90;;;;;;5115799;27;19920;-75
2023/12/01 11:16:31;;;;;;;;;;;5.30;99.90;;;;;;5113444;27;20025;-75
2023/12/01 11:18:58;;;;;;;;;;;4.70;99.90;;;;;;5117858;27;20414;-76
2023/12/01 11:21:23;;;;;;;;;;;4.30;99.90;;;;;;5131819;27;19923;-76
2023/12/01 11:23:49;;;;;;;;;;;4.10;99.90;;;;;;5121672;27;19921;-76
2023/12/01 11:26:16;;;;;;;;;;;3.50;99.90;;;;;;5145760;27;20565;-75
2023/12/01 11:31:13;;;;;;;;;;;3.20;99.90;;;;;;5116604;27;19926;-75
2023/12/01 11:33:39;;;;;;;;;;;3.00;99.90;;;;;;5119902;27;19919;-76
2023/12/01 11:36:19;;;;;;;;;;;2.80;99.90;;;;;;5147872;27;20387;-75
2023/12/01 11:39:09;;;;;;;;;;;2.70;99.90;;;;;;5174022;27;20398;-75
2023/12/01 11:41:41;;;;;;;;;;;2.50;99.90;;;;;;5120717;27;20382;-76
2023/12/01 11:44:29;;;;;;;;;;;2.40;99.90;;;;;;5117161;27;19962;-75
2023/12/01 11:46:56;;;;;;;;;;;2.60;99.90;;;;;;5108450;27;19927;-76
2023/12/01 11:49:31;;;;;;;;;;;2.20;99.90;;;;;;5115132;27;19947;-77
2023/12/01 11:51:57;;;;;;;;;;;2.40;99.90;;;;;;5123911;27;19919;-78
2023/12/01 11:54:23;;;;;;;;;;;1.90;99.90;;;;;;5126411;27;19956;-77
2023/12/01 11:56:50;;;;;;;;;;;1.90;99.90;;;;;;5116602;27;20636;-77
2023/12/01 11:59:16;;;;;;;;;;;1.80;99.90;;;;;;5134546;27;20320;-76
2023/12/01 12:01:42;;;;;;;;;;;3.00;99.90;;;;;;5119110;27;19919;-78
2023/12/01 12:04:09;;;;;;;;;;;1.80;99.90;;;;;;5119952;27;20293;-77
2023/12/01 12:06:35;;;;;;;;;;;1.70;99.90;;;;;;5124041;27;19927;-77
2023/12/01 12:09:06;;;;;;;;;;;1.70;99.90;;;;;;5124311;27;19927;-78
2023/12/01 12:11:33;;;;;;;;;;;2.50;99.90;;;;;;5119993;27;19919;-77
2023/12/01 12:14:01;;;;;;;;;;;1.90;99.90;;;;;;5125874;27;20358;-76
2023/12/01 12:16:27;;;;;;;;;;;2.40;99.90;;;;;;5118663;27;19927;-78
2023/12/01 12:18:53;;;;;;;;;;;3.00;99.90;;;;;;5118929;27;20308;-77
2023/12/01 12:21:18;;;;;;;;;;;2.80;99.90;;;;;;5125382;27;19919;-76
2023/12/01 12:23:45;;;;;;;;;;;3.40;99.90;;;;;;5125919;27;20304;-76
2023/12/01 12:26:18;;;;;;;;;;;3.90;99.90;;;;;;5124544;27;19919;-76
2023/12/01 12:28:46;;;;;;;;;;;4.40;99.90;;;;;;5125673;27;19925;-77
2023/12/01 12:31:11;;;;;;;;;;;5.40;99.90;;;;;;5131864;27;19965;-77
2023/12/01 12:33:37;;;;;;;;;;;4.90;99.90;;;;;;5112665;27;20316;-76
2023/12/01 12:36:04;;;;;;;;;;;4.60;99.90;;;;;;5131528;27;20414;-76
2023/12/01 12:38:29;;;;;;;;;;;4.10;99.90;;;;;;5127943;27;19981;-77
2023/12/01 12:40:55;;;;;;;;;;;4.30;99.90;;;;;;5113306;27;19958;-78
2023/12/01 12:43:22;;;;;;;;;;;3.60;99.90;;;;;;5121543;27;20360;-77
2023/12/01 12:45:51;;;;;;;;;;;3.30;99.90;;;;;;5124004;27;19976;-75
2023/12/01 12:48:16;;;;;;;;;;;3.00;99.90;;;;;;5116200;27;19979;-78
2023/12/01 12:50:42;;;;;;;;;;;3.50;99.90;;;;;;5115367;27;19983;-77
2023/12/01 12:53:08;;;;;;;;;;;2.60;99.90;;;;;;5117941;27;19919;-78
2023/12/01 12:55:33;;;;;;;;;;;2.30;99.90;;;;;;5119308;27;19919;-76
2023/12/01 12:58:00;;;;;;;;;;;2.20;99.90;;;;;;5116235;27;19923;-78
2023/12/01 13:00:26;;;;;;;;;;;2.20;99.90;;;;;;5116886;27;20056;-76
2023/12/01 13:02:53;;;;;;;;;;;1.90;99.90;;;;;;5111410;27;19969;-76
2023/12/01 13:05:19;;;;;;;;;;;1.80;99.90;;;;;;5116580;27;19980;-77
2023/12/01 13:07:44;;;;;;;;;;;1.70;99.90;;;;;;5121196;27;19927;-81
2023/12/01 13:10:10;;;;;;;;;;;1.60;99.90;;;;;;5112937;27;20398;-81
2023/12/01 13:12:37;;;;;;;;;;;2.10;99.90;;;;;;5118794;27;19919;-80
2023/12/01 13:15:03;;;;;;;;;;;1.30;99.90;;;;;;5126381;27;19930;-80
2023/12/01 13:17:29;;;;;;;;;;;1.30;99.90;;;;;;5117592;27;20030;-81
2023/12/01 13:19:57;;;;;;;;;;;1.20;99.90;;;;;;5126543;27;20009;-81
2023/12/01 13:22:23;;;;;;;;;;;1.10;99.90;;;;;;5126071;27;20354;-82
2023/12/01 13:24:49;;;;;;;;;;;1.00;99.90;;;;;;5116708;27;19924;-80
2023/12/01 13:27:15;;;;;;;;;;;0.90;99.90;;;;;;5139537;27;19959;-80
2023/12/01 13:29:40;;;;;;;;;;;0.90;99.90;;;;;;5144224;27;20505;-80
2023/12/01 13:32:06;;;;;;;;;;;0.90;99.90;;;;;;5118663;27;20294;-81
2023/12/01 13:34:32;;;;;;;;;;;0.80;99.90;;;;;;5127434;27;19919;-81
2023/12/01 13:36:58;;;;;;;;;;;1.20;99.90;;;;;;5144909;27;19923;-82
2023/12/01 13:39:24;;;;;;;;;;;0.70;99.90;;;;;;5145322;27;19919;-82
2023/12/01 13:41:49;;;;;;;;;;;0.70;99.90;;;;;;5118021;27;19919;-80
2023/12/01 13:44:15;;;;;;;;;;;0.60;99.90;;;;;;5128075;27;19922;-80
2023/12/01 13:46:41;;;;;;;;;;;0.60;99.90;;;;;;5113491;28;20255;-80
2023/12/01 13:49:07;;;;;;;;;;;0.60;99.90;;;;;;5138713;27;19940;-81
2023/12/01 13:51:33;;;;;;;;;;;0.50;99.90;;;;;;5119875;28;20336;-80
2023/12/01 13:53:58;;;;;;;;;;;0.50;99.90;;;;;;5136827;27;19930;-81
2023/12/01 13:56:24;;;;;;;;;;;0.40;99.90;;;;;;5119922;27;20365;-82
2023/12/01 13:58:49;;;;;;;;;;;1.90;99.90;;;;;;5127130;27;20004;-80
2023/12/01 14:01:16;;;;;;;;;;;0.50;99.90;;;;;;5126372;27;19939;-81
2023/12/01 14:03:41;;;;;;;;;;;0.40;99.90;;;;;;5123277;27;20606;-79
2023/12/01 14:06:07;;;;;;;;;;;0.40;99.90;;;;;;5117065;27;20017;-78
2023/12/01 14:08:33;;;;;;;;;;;0.30;99.90;;;;;;5122066;27;19924;-81
2023/12/01 14:10:58;;;;;;;;;;;0.20;99.90;;;;;;5128591;27;19922;-80
2023/12/01 14:13:24;;;;;;;;;;;0.20;99.90;;;;;;5122069;27;20388;-80
2023/12/01 14:15:50;;;;;;;;;;;0.10;99.90;;;;;;5125989;27;19929;-79
2023/12/01 14:18:15;;;;;;;;;;;0.10;99.90;;;;;;5116838;27;19926;-80
2023/12/01 14:20:41;;;;;;;;;;;0.00;99.90;;;;;;5116790;27;20032;-79
2023/12/01 14:23:09;;;;;;;;;;;0.00;99.90;;;;;;5119281;27;20327;-78